Time;durP1;ratioP1;P1;durP2;ratioP2;P2;SDS_P1;SDS_P2;PMS_P1;PMS_P2;Temp;Humidity;BMP_temperature;BMP_pressure;BME280_temperature;BME280_humidity;BME280_pressure;Samples;Min_cycle;Max_cycle;Signal;HPM_P1;HPM_P2
2021/10/29 00:01:00;;;;;;;28.75;13.70;;;5.70;99.90;;;;;;5051852;28;20067;-78
2021/10/29 00:03:26;;;;;;;21.75;12.65;;;5.80;99.90;;;;;;5051282;28;20033;-78
2021/10/29 00:05:52;;;;;;;36.92;18.58;;;5.80;99.90;;;;;;5034554;28;20683;-78
2021/10/29 00:08:18;;;;;;;;;;;6.00;99.90;;;;;;5053413;28;20036;-77
2021/10/29 00:10:44;;;;;;;34.30;17.05;;;6.00;99.90;;;;;;5035023;28;19904;-77
2021/10/29 00:13:11;;;;;;;34.03;17.63;;;5.90;99.90;;;;;;5036135;28;20033;-78
2021/10/29 00:15:38;;;;;;;29.02;16.25;;;5.80;99.90;;;;;;5054209;28;20059;-79
2021/10/29 00:18:04;;;;;;;27.80;15.82;;;5.70;99.90;;;;;;5036358;28;20508;-78
2021/10/29 00:20:30;;;;;;;;;;;5.70;99.90;;;;;;5056713;28;20025;-79
2021/10/29 00:22:55;;;;;;;27.77;15.48;;;5.70;99.90;;;;;;5057809;28;19916;-78
2021/10/29 00:25:21;;;;;;;30.98;17.23;;;5.60;99.90;;;;;;5039239;28;20029;-79
2021/10/29 00:27:47;;;;;;;31.77;15.18;;;5.60;99.90;;;;;;5057301;28;20037;-79
2021/10/29 00:30:13;;;;;;;;;;;5.60;99.90;;;;;;5040110;28;20132;-78
2021/10/29 00:32:38;;;;;;;30.35;14.70;;;5.60;99.90;;;;;;5041584;28;19911;-79
2021/10/29 00:35:04;;;;;;;;;;;5.80;99.90;;;;;;5042235;28;20041;-78
2021/10/29 00:37:37;;;;;;;39.97;14.95;;;5.80;99.90;;;;;;5060492;28;19927;-77
2021/10/29 00:40:03;;;;;;;28.52;14.48;;;5.90;99.90;;;;;;5037411;28;20116;-78
2021/10/29 00:42:29;;;;;;;26.50;14.40;;;5.90;99.90;;;;;;5037447;28;20521;-78
2021/10/29 00:44:55;;;;;;;26.02;14.88;;;6.10;99.90;;;;;;5060732;28;20053;-78
2021/10/29 00:47:21;;;;;;;28.80;14.10;;;6.20;99.90;;;;;;5038729;28;20037;-78
2021/10/29 00:49:46;;;;;;;;;;;6.20;99.90;;;;;;5058737;28;20021;-78
2021/10/29 00:52:13;;;;;;;32.33;14.40;;;6.10;99.90;;;;;;5051446;28;19904;-77
2021/10/29 00:54:40;;;;;;;21.13;11.60;;;6.20;99.90;;;;;;5049919;28;20076;-77
2021/10/29 00:57:05;;;;;;;26.98;13.32;;;6.10;99.90;;;;;;5032782;28;20150;-77
2021/10/29 00:59:31;;;;;;;24.90;13.40;;;6.10;99.90;;;;;;5049823;28;20096;-77
2021/10/29 01:01:58;;;;;;;25.40;14.75;;;6.00;99.90;;;;;;5049973;28;20500;-77
2021/10/29 01:04:25;;;;;;;26.05;14.73;;;6.00;99.90;;;;;;5049472;28;20025;-77
2021/10/29 01:06:50;;;;;;;29.88;14.38;;;6.00;99.90;;;;;;5030190;28;20059;-77
2021/10/29 01:09:16;;;;;;;;;;;5.90;99.90;;;;;;5030429;28;20026;-77
2021/10/29 01:11:43;;;;;;;24.50;14.02;;;5.90;99.90;;;;;;5049591;28;19952;-78
2021/10/29 01:14:09;;;;;;;29.30;14.25;;;5.90;99.90;;;;;;5050011;28;20021;-77
2021/10/29 01:16:35;;;;;;;;;;;6.00;99.90;;;;;;5034208;28;20048;-78
2021/10/29 01:19:02;;;;;;;25.67;13.75;;;6.20;99.90;;;;;;5052038;28;19909;-78
2021/10/29 01:21:27;;;;;;;25.30;14.05;;;6.20;99.90;;;;;;5051215;28;20025;-78
2021/10/29 01:23:53;;;;;;;33.80;14.30;;;6.20;99.90;;;;;;5050613;28;20037;-78
2021/10/29 01:26:19;;;;;;;;;;;6.20;99.90;;;;;;5034309;28;20607;-78
2021/10/29 01:28:46;;;;;;;22.52;12.75;;;6.20;99.90;;;;;;5052047;28;19919;-78
2021/10/29 01:31:12;;;;;;;25.38;13.32;;;6.20;99.90;;;;;;5052361;28;20032;-78
2021/10/29 01:33:39;;;;;;;28.27;16.38;;;6.20;99.90;;;;;;5052468;28;20056;-78
2021/10/29 01:36:05;;;;;;;33.38;16.52;;;6.30;99.90;;;;;;5035310;28;20036;-77
2021/10/29 01:38:35;;;;;;;35.80;17.45;;;6.10;99.90;;;;;;5033301;28;20594;-77
2021/10/29 01:41:03;;;;;;;33.85;16.02;;;6.00;99.90;;;;;;5055107;28;20025;-79
2021/10/29 01:43:29;;;;;;;32.08;14.55;;;5.80;99.90;;;;;;5053576;28;20025;-77
2021/10/29 01:45:56;;;;;;;33.20;15.57;;;5.80;99.90;;;;;;5033940;28;20079;-78
2021/10/29 01:48:23;;;;;;;31.75;15.02;;;5.70;99.90;;;;;;5032265;28;20044;-78
2021/10/29 01:50:49;;;;;;;30.30;16.83;;;5.80;99.90;;;;;;5032208;28;20205;-78
2021/10/29 01:53:15;;;;;;;;;;;5.80;99.90;;;;;;5050994;28;20048;-78
2021/10/29 01:55:41;;;;;;;30.93;16.67;;;5.80;99.90;;;;;;5051271;28;19924;-76
2021/10/29 01:58:07;;;;;;;;;;;5.90;99.90;;;;;;5052448;28;20037;-78
2021/10/29 02:00:33;;;;;;;33.47;17.15;;;5.80;99.90;;;;;;5032776;28;19909;-77
2021/10/29 02:02:59;;;;;;;26.38;16.48;;;5.80;99.90;;;;;;5033128;28;20029;-77
2021/10/29 02:05:25;;;;;;;;;;;5.70;99.90;;;;;;5050282;28;20056;-78
2021/10/29 02:07:51;;;;;;;28.75;13.00;;;5.60;99.90;;;;;;5052848;28;20415;-78
2021/10/29 02:10:16;;;;;;;21.33;12.63;;;5.50;99.90;;;;;;5035451;28;20033;-77
2021/10/29 02:12:42;;;;;;;;;;;5.50;99.90;;;;;;5053426;28;20033;-78
2021/10/29 02:15:09;;;;;;;24.58;14.02;;;5.30;99.90;;;;;;5034418;28;19913;-78
2021/10/29 02:17:35;;;;;;;28.75;15.05;;;5.30;99.90;;;;;;5037536;28;20029;-78
2021/10/29 02:20:01;;;;;;;;;;;5.30;99.90;;;;;;5059293;28;20112;-78
2021/10/29 02:22:27;;;;;;;24.20;13.90;;;5.20;99.90;;;;;;5053303;28;20003;-78
2021/10/29 02:24:53;;;;;;;23.02;13.45;;;5.30;99.90;;;;;;5052794;28;20471;-78
2021/10/29 02:27:19;;;;;;;24.38;13.63;;;5.20;99.90;;;;;;5035344;28;20028;-77
2021/10/29 02:29:46;;;;;;;30.80;17.15;;;5.10;99.90;;;;;;5053389;28;20033;-77
2021/10/29 02:32:11;;;;;;;31.17;17.55;;;5.10;99.90;;;;;;5034712;28;20032;-78
2021/10/29 02:34:37;;;;;;;;;;;5.00;99.90;;;;;;5035733;28;20029;-78
2021/10/29 02:37:03;;;;;;;32.83;17.33;;;5.00;99.90;;;;;;5052005;28;19911;-77
2021/10/29 02:39:28;;;;;;;;;;;4.90;99.90;;;;;;5036050;28;20032;-78
2021/10/29 02:41:54;;;;;;;32.83;17.98;;;4.90;99.90;;;;;;5068878;28;19905;-77
2021/10/29 02:44:19;;;;;;;;;;;4.80;99.90;;;;;;5053642;28;20602;-78
2021/10/29 02:46:48;;;;;;;28.15;15.18;;;4.80;99.90;;;;;;5068693;28;19954;-78
2021/10/29 02:49:13;;;;;;;24.60;13.90;;;4.80;99.90;;;;;;5053902;28;20079;-78
2021/10/29 02:51:39;;;;;;;;;;;4.90;99.90;;;;;;5036068;28;20045;-77
2021/10/29 02:54:05;;;;;;;19.95;10.68;;;4.90;99.90;;;;;;5054055;28;20304;-77
2021/10/29 02:56:31;;;;;;;23.20;11.40;;;5.00;99.90;;;;;;5036337;28;20037;-77
2021/10/29 02:58:57;;;;;;;18.45;10.40;;;5.10;99.90;;;;;;5053511;28;20032;-78
2021/10/29 03:01:23;;;;;;;;;;;5.40;99.90;;;;;;5053830;28;20623;-78
2021/10/29 03:03:48;;;;;;;19.17;11.10;;;5.60;99.90;;;;;;5035180;28;20059;-78
2021/10/29 03:06:14;;;;;;;;;;;5.80;99.90;;;;;;5054894;28;20701;-78
2021/10/29 03:08:39;;;;;;;26.85;12.95;;;5.90;99.90;;;;;;5072437;28;20577;-77
2021/10/29 03:11:05;;;;;;;;;;;6.00;99.90;;;;;;5057454;28;20403;-78
2021/10/29 03:13:31;;;;;;;19.65;11.25;;;6.20;99.90;;;;;;5039901;28;20326;-78
2021/10/29 03:15:57;;;;;;;22.15;12.82;;;6.40;99.90;;;;;;5058926;28;20507;-77
2021/10/29 03:18:24;;;;;;;20.40;11.90;;;6.60;99.90;;;;;;5058464;28;20049;-77
2021/10/29 03:20:50;;;;;;;19.27;11.90;;;6.50;99.90;;;;;;5055391;28;20520;-77
2021/10/29 03:23:17;;;;;;;23.30;12.93;;;6.50;99.90;;;;;;5041770;28;20028;-78
2021/10/29 03:25:44;;;;;;;29.70;13.82;;;6.30;99.90;;;;;;5061010;28;20040;-78
2021/10/29 03:28:09;;;;;;;27.77;12.93;;;6.20;99.90;;;;;;5038132;28;20033;-77
2021/10/29 03:30:35;;;;;;;21.08;13.02;;;6.00;99.90;;;;;;5053078;28;20119;-77
2021/10/29 03:33:01;;;;;;;22.42;12.45;;;6.00;99.90;;;;;;5052553;28;20029;-78
2021/10/29 03:35:27;;;;;;;24.33;12.85;;;5.90;99.90;;;;;;5041622;28;20076;-78
2021/10/29 03:38:11;;;;;;;19.52;11.90;;;5.80;99.90;;;;;;5054271;28;20055;-77
2021/10/29 03:41:00;;;;;;;20.83;10.27;;;5.80;99.90;;;;;;5052214;28;20028;-77
2021/10/29 03:43:34;;;;;;;23.38;11.18;;;5.60;99.90;;;;;;5051524;28;20048;-78
2021/10/29 03:46:03;;;;;;;20.83;11.70;;;5.50;99.90;;;;;;5051380;28;20417;-77
2021/10/29 03:51:17;;;;;;;25.70;13.32;;;5.30;99.90;;;;;;5049721;28;20036;-77
2021/10/29 03:56:17;;;;;;;;;;;5.10;99.90;;;;;;5054303;28;20076;-77
2021/10/29 03:58:43;;;;;;;32.20;15.02;;;4.90;99.90;;;;;;5049043;28;19909;-77
2021/10/29 04:01:09;;;;;;;24.42;14.10;;;4.90;99.90;;;;;;5031199;28;20033;-77
2021/10/29 04:03:34;;;;;;;;;;;4.80;99.90;;;;;;5048593;28;20047;-77
2021/10/29 04:06:00;;;;;;;28.77;14.40;;;4.90;99.90;;;;;;5030423;28;19956;-78
2021/10/29 04:08:25;;;;;;;29.80;15.75;;;4.90;99.90;;;;;;5049048;28;20722;-77
2021/10/29 04:10:51;;;;;;;25.70;15.88;;;4.90;99.90;;;;;;5048927;28;20552;-77
2021/10/29 04:13:17;;;;;;;28.08;15.40;;;4.90;99.90;;;;;;5050631;28;20036;-78
2021/10/29 04:15:43;;;;;;;33.78;15.38;;;5.10;99.90;;;;;;5050355;28;20061;-76
2021/10/29 04:18:09;;;;;;;;;;;5.10;99.90;;;;;;5049688;28;20064;-77
2021/10/29 04:20:37;;;;;;;34.08;18.00;;;5.10;99.90;;;;;;5028447;28;20023;-78
2021/10/29 04:23:03;;;;;;;42.30;20.30;;;5.30;99.90;;;;;;5031251;28;20025;-76
2021/10/29 04:25:30;;;;;;;47.65;24.73;;;5.40;99.90;;;;;;5031685;28;20025;-77
2021/10/29 04:28:00;;;;;;;32.45;17.60;;;5.40;99.90;;;;;;5049479;28;20408;-76
2021/10/29 04:30:29;;;;;;;29.90;15.23;;;5.50;99.90;;;;;;5050157;28;20061;-76
2021/10/29 04:32:56;;;;;;;25.85;14.90;;;5.60;99.90;;;;;;5032717;28;20060;-77
2021/10/29 04:35:22;;;;;;;33.53;15.57;;;5.70;99.90;;;;;;5031888;28;20044;-77
2021/10/29 04:37:47;;;;;;;;;;;5.80;99.90;;;;;;5050954;28;20025;-77
2021/10/29 04:40:13;;;;;;;28.13;14.30;;;5.90;99.90;;;;;;5050222;28;20380;-77
2021/10/29 04:42:39;;;;;;;;;;;5.90;99.90;;;;;;5050921;28;20472;-76
2021/10/29 04:45:05;;;;;;;28.63;14.73;;;5.90;99.90;;;;;;5050975;28;19916;-76
2021/10/29 04:47:32;;;;;;;25.17;13.88;;;5.80;99.90;;;;;;5034043;28;20025;-76
2021/10/29 04:49:58;;;;;;;25.70;15.43;;;5.70;99.90;;;;;;5033949;28;20029;-76
2021/10/29 04:52:23;;;;;;;;;;;5.70;99.90;;;;;;5052630;28;20094;-77
2021/10/29 04:54:50;;;;;;;31.08;15.35;;;5.50;99.90;;;;;;5051903;28;19916;-77
2021/10/29 04:57:16;;;;;;;27.23;14.45;;;5.40;99.90;;;;;;5034273;28;20033;-77
2021/10/29 04:59:43;;;;;;;;;;;5.30;99.90;;;;;;5051130;28;20390;-77
2021/10/29 05:02:09;;;;;;;25.70;13.93;;;5.30;99.90;;;;;;5032661;28;19958;-78
2021/10/29 05:04:35;;;;;;;;;;;5.20;99.90;;;;;;5051645;28;20072;-77
2021/10/29 05:07:01;;;;;;;40.17;18.15;;;5.10;99.90;;;;;;5048567;28;20441;-77
2021/10/29 05:09:26;;;;;;;;;;;5.00;99.90;;;;;;5050627;28;20028;-77
2021/10/29 05:11:58;;;;;;;32.10;15.55;;;4.90;99.90;;;;;;5052116;28;19962;-78
2021/10/29 05:14:24;;;;;;;25.50;13.45;;;5.00;99.90;;;;;;5034083;28;20021;-78
2021/10/29 05:16:50;;;;;;;;;;;5.00;99.90;;;;;;5033881;28;20482;-78
2021/10/29 05:19:17;;;;;;;24.07;14.47;;;5.10;99.90;;;;;;5032470;28;19909;-78
2021/10/29 05:21:43;;;;;;;27.50;14.98;;;5.10;99.90;;;;;;5049725;28;20032;-77
2021/10/29 05:24:09;;;;;;;26.88;16.08;;;5.10;99.90;;;;;;5051547;28;20032;-77
2021/10/29 05:26:35;;;;;;;;;;;5.20;99.90;;;;;;5052108;28;20319;-79
2021/10/29 05:29:01;;;;;;;29.52;15.27;;;5.30;99.90;;;;;;5038603;28;19928;-78
2021/10/29 05:31:26;;;;;;;26.95;13.30;;;5.40;99.90;;;;;;5056831;28;20029;-78
2021/10/29 05:33:52;;;;;;;31.92;14.77;;;5.50;99.90;;;;;;5051345;28;20035;-77
2021/10/29 05:36:18;;;;;;;;;;;5.50;99.90;;;;;;5051268;28;20087;-78
2021/10/29 05:38:43;;;;;;;37.83;17.40;;;5.50;99.90;;;;;;5031283;28;20279;-78
2021/10/29 05:41:11;;;;;;;;;;;5.50;99.90;;;;;;5052149;28;20040;-78
2021/10/29 05:43:38;;;;;;;43.88;20.85;;;5.50;99.90;;;;;;5057634;28;19905;-77
2021/10/29 05:46:04;;;;;;;;;;;5.50;99.90;;;;;;5062042;28;20080;-79
2021/10/29 05:48:38;;;;;;;22.67;13.40;;;5.40;99.90;;;;;;5044162;28;19912;-79
2021/10/29 05:51:10;;;;;;;23.17;12.05;;;5.40;99.90;;;;;;5038207;28;20040;-77
2021/10/29 05:53:50;;;;;;;20.15;12.05;;;5.40;99.90;;;;;;5036295;28;20127;-77
2021/10/29 05:56:17;;;;;;;20.42;10.18;;;5.50;99.90;;;;;;5037669;28;20029;-75
2021/10/29 05:58:43;;;;;;;20.88;11.68;;;5.70;99.90;;;;;;5041295;28;20031;-78
2021/10/29 06:01:09;;;;;;;;;;;5.80;99.90;;;;;;5046051;28;20040;-78
2021/10/29 06:03:34;;;;;;;19.15;11.35;;;6.00;99.90;;;;;;5071338;28;19904;-77
2021/10/29 06:06:00;;;;;;;;;;;6.20;99.90;;;;;;5052597;28;20505;-77
2021/10/29 06:08:26;;;;;;;27.27;11.90;;;6.30;99.90;;;;;;5050407;28;19958;-82
2021/10/29 06:10:52;;;;;;;23.73;14.43;;;6.40;99.90;;;;;;5050506;28;20503;-76
2021/10/29 06:13:18;;;;;;;24.58;13.15;;;6.60;99.90;;;;;;5050673;28;20032;-76
2021/10/29 06:15:46;;;;;;;34.53;18.67;;;6.60;99.90;;;;;;5032850;28;20033;-76
2021/10/29 06:18:22;;;;;;;39.30;22.70;;;6.80;99.90;;;;;;5052261;28;20085;-76
2021/10/29 06:20:48;;;;;;;40.95;22.70;;;7.20;99.90;;;;;;5054711;28;20555;-77
2021/10/29 06:23:14;;;;;;;43.20;23.35;;;7.80;99.90;;;;;;5056438;28;20025;-79
2021/10/29 06:25:42;;;;;;;;;;;8.70;99.90;;;;;;5041550;28;20047;-77
2021/10/29 06:28:23;;;;;;;68.43;41.10;;;9.50;99.90;;;;;;5039078;28;19912;-78
2021/10/29 06:30:50;;;;;;;61.25;41.35;;;10.20;98.50;;;;;;5023331;28;20110;-78
2021/10/29 06:33:19;;;;;;;60.25;30.63;;;10.80;96.30;;;;;;5037766;28;20037;-78
2021/10/29 06:35:47;;;;;;;43.97;29.33;;;11.20;95.10;;;;;;5022219;28;20091;-78
2021/10/29 06:38:13;;;;;;;41.08;26.88;;;11.40;94.50;;;;;;5037731;28;20527;-78
2021/10/29 06:40:43;;;;;;;44.50;27.52;;;11.60;93.40;;;;;;5055496;28;20039;-77
2021/10/29 06:43:37;;;;;;;36.08;25.73;;;11.80;92.50;;;;;;5038252;28;20300;-79
2021/10/29 06:46:17;;;;;;;39.25;24.83;;;11.90;92.30;;;;;;5055562;28;20036;-78
2021/10/29 07:40:14;;;;;;;37.83;14.88;;;13.10;86.00;;;;;;5035474;28;20040;-78
2021/10/29 07:45:24;;;;;;;26.02;13.93;;;13.10;84.80;;;;;;5053958;28;20118;-77
2021/10/29 07:47:53;;;;;;;23.17;13.95;;;13.20;83.90;;;;;;5054514;28;20025;-79
2021/10/29 07:50:20;;;;;;;20.67;12.63;;;13.20;83.30;;;;;;5036093;28;20287;-77
2021/10/29 07:52:49;;;;;;;35.85;14.57;;;13.20;83.70;;;;;;5053823;28;20401;-78
2021/10/29 07:55:17;;;;;;;29.83;15.13;;;13.30;84.10;;;;;;5035293;28;20041;-76
2021/10/29 07:57:45;;;;;;;26.63;14.75;;;13.50;82.00;;;;;;5035492;28;20405;-78
2021/10/29 08:00:11;;;;;;;31.50;14.63;;;13.50;81.20;;;;;;5054200;28;20037;-78
2021/10/29 08:02:37;;;;;;;24.48;13.82;;;13.60;79.50;;;;;;5052733;28;20032;-76
2021/10/29 08:05:03;;;;;;;;;;;13.70;79.30;;;;;;5052049;28;20057;-76
2021/10/29 08:07:30;;;;;;;24.90;14.07;;;13.70;78.70;;;;;;5034422;28;19908;-75
2021/10/29 08:10:01;;;;;;;24.45;14.25;;;13.80;78.90;;;;;;5033584;28;20036;-74
2021/10/29 08:12:27;;;;;;;25.23;13.90;;;14.00;77.60;;;;;;5035545;28;20097;-76
2021/10/29 08:14:56;;;;;;;;;;;14.30;76.40;;;;;;5033916;28;20060;-76
2021/10/29 08:17:21;;;;;;;25.58;14.30;;;14.50;73.70;;;;;;5051798;28;19908;-76
2021/10/29 08:19:48;;;;;;;;;;;14.80;72.90;;;;;;5052169;28;20033;-75
2021/10/29 08:22:14;;;;;;;20.23;13.13;;;15.10;71.70;;;;;;5066568;28;19905;-77
2021/10/29 08:24:41;;;;;;;22.35;13.77;;;15.20;71.60;;;;;;5053099;28;20052;-77
2021/10/29 08:27:08;;;;;;;24.17;14.43;;;15.60;71.60;;;;;;5047000;28;20048;-79
2021/10/29 08:29:34;;;;;;;36.15;16.77;;;16.10;70.00;;;;;;5028644;28;20033;-80
2021/10/29 08:32:00;;;;;;;33.40;15.68;;;16.60;67.70;;;;;;5028533;28;20040;-83
2021/10/29 08:34:27;;;;;;;28.35;15.73;;;17.00;64.80;;;;;;5028230;28;20033;-83
2021/10/29 08:37:01;;;;;;;30.48;19.50;;;17.50;63.00;;;;;;5028698;28;20030;-78
2021/10/29 08:39:29;;;;;;;29.20;15.43;;;17.70;59.70;;;;;;5028684;28;20540;-78
2021/10/29 08:41:56;;;;;;;36.83;19.67;;;18.10;58.80;;;;;;5046360;28;20029;-81
2021/10/29 08:44:21;;;;;;;28.45;15.65;;;18.50;57.00;;;;;;5028992;28;20029;-79
2021/10/29 08:46:47;;;;;;;29.98;19.60;;;18.80;56.10;;;;;;5045135;28;20102;-81
2021/10/29 08:49:15;;;;;;;27.63;14.45;;;19.00;53.90;;;;;;5027867;28;20159;-77
2021/10/29 08:51:42;;;;;;;29.73;18.00;;;19.00;53.60;;;;;;5045527;28;20025;-77
2021/10/29 08:54:09;;;;;;;24.83;16.05;;;19.10;53.60;;;;;;5027346;28;20033;-77
2021/10/29 08:56:35;;;;;;;36.30;19.60;;;19.40;53.30;;;;;;5044704;28;20041;-79
2021/10/29 09:01:57;;;;;;;29.23;17.15;;;19.70;51.10;;;;;;5044373;28;20475;-77
2021/10/29 09:04:36;;;;;;;23.67;13.60;;;20.10;49.40;;;;;;5028396;28;20691;-77
2021/10/29 09:31:36;;;;;;;24.45;15.05;;;21.00;46.30;;;;;;5006923;28;20032;-76
2021/10/29 09:34:11;;;;;;;30.52;17.00;;;19.90;48.40;;;;;;5007472;28;20034;-75
2021/10/29 09:36:39;;;;;;;24.60;12.93;;;19.40;49.60;;;;;;5023382;28;20101;-80
2021/10/29 09:39:15;;;;;;;18.80;11.93;;;18.90;48.80;;;;;;5053153;28;20037;-80
2021/10/29 09:41:42;;;;;;;18.75;11.88;;;18.30;48.90;;;;;;5041201;28;20075;-76
2021/10/29 09:44:10;;;;;;;23.25;10.90;;;18.10;49.50;;;;;;5049602;28;20037;-78
2021/10/29 09:49:33;;;;;;;19.65;12.20;;;17.80;50.10;;;;;;5048601;28;20039;-79
2021/10/29 09:54:43;;;;;;;;;;;17.10;51.40;;;;;;5054495;28;20044;-77
2021/10/29 09:57:09;;;;;;;22.27;11.85;;;16.90;51.30;;;;;;5042895;28;19923;-77
2021/10/29 09:59:35;;;;;;;19.55;11.52;;;16.80;51.90;;;;;;5037755;28;20567;-77
2021/10/29 10:02:02;;;;;;;18.63;11.85;;;16.60;52.50;;;;;;5055019;28;20025;-76
2021/10/29 10:04:30;;;;;;;21.48;10.70;;;16.50;53.10;;;;;;5046330;28;20394;-76
2021/10/29 10:06:58;;;;;;;22.50;10.60;;;16.50;53.30;;;;;;5030780;28;20799;-77
2021/10/29 10:09:24;;;;;;;20.60;11.23;;;16.50;52.90;;;;;;5034198;28;20029;-79
2021/10/29 10:11:52;;;;;;;17.85;10.45;;;16.40;52.80;;;;;;5037869;28;20029;-81
2021/10/29 10:14:18;;;;;;;16.00;9.98;;;16.30;52.60;;;;;;5043468;28;20025;-79
2021/10/29 10:16:45;;;;;;;21.60;11.63;;;16.10;52.20;;;;;;5041974;28;20393;-77
2021/10/29 10:19:10;;;;;;;18.55;11.00;;;16.00;53.00;;;;;;5056619;28;20055;-79
2021/10/29 10:21:41;;;;;;;;;;;15.90;53.80;;;;;;5043754;28;20544;-77
2021/10/29 10:24:14;;;;;;;27.90;11.93;;;15.90;54.00;;;;;;5035697;28;19908;-79
2021/10/29 10:40:41;;;;;;;23.23;11.68;;;16.20;53.50;;;;;;5054255;28;20056;-78
2021/10/29 10:46:15;;;;;;;24.42;12.57;;;16.30;53.50;;;;;;5055500;28;20040;-77
2021/10/29 10:48:52;;;;;;;32.75;10.80;;;16.30;53.30;;;;;;5055223;28;20037;-77
2021/10/29 10:51:32;;;;;;;23.40;11.45;;;16.30;52.20;;;;;;5032516;28;20512;-77
2021/10/29 10:54:04;;;;;;;18.35;9.98;;;16.30;53.30;;;;;;5017749;28;20096;-77
2021/10/29 10:56:53;;;;;;;27.50;11.90;;;16.20;53.00;;;;;;5012776;28;20160;-75
2021/10/29 10:59:48;;;;;;;26.27;12.70;;;16.30;53.50;;;;;;5012264;28;20025;-76
2021/10/29 11:05:15;;;;;;;23.50;12.13;;;16.30;54.20;;;;;;5031028;28;20057;-79
2021/10/29 11:10:17;;;;;;;29.83;11.05;;;16.40;53.20;;;;;;5039076;28;20027;-79
2021/10/29 11:12:44;;;;;;;23.67;11.50;;;16.50;52.90;;;;;;5034960;28;20064;-76
2021/10/29 11:15:21;;;;;;;18.90;10.63;;;16.40;53.10;;;;;;5012919;28;20069;-77
2021/10/29 11:17:51;;;;;;;25.05;11.45;;;16.40;52.00;;;;;;5013262;28;20036;-77
2021/10/29 11:23:23;;;;;;;26.65;13.88;;;16.40;52.20;;;;;;5031216;28;20083;-77
2021/10/29 11:26:08;;;;;;;29.17;13.90;;;16.40;54.20;;;;;;5013163;28;20033;-76
2021/10/29 11:28:42;;;;;;;25.25;12.15;;;16.50;53.70;;;;;;5031018;28;20025;-76
2021/10/29 11:31:10;;;;;;;29.05;13.70;;;16.50;53.50;;;;;;5029995;28;20037;-77
2021/10/29 11:33:50;;;;;;;29.77;14.63;;;16.60;54.30;;;;;;5013047;28;20061;-76
2021/10/29 11:36:21;;;;;;;25.52;14.75;;;16.60;54.60;;;;;;5032249;28;20033;-77
2021/10/29 11:38:49;;;;;;;26.05;14.30;;;16.70;54.20;;;;;;5033204;28;20462;-78
2021/10/29 11:41:18;;;;;;;32.00;13.10;;;16.60;53.90;;;;;;5017278;28;20029;-80
2021/10/29 11:43:43;;;;;;;26.73;13.13;;;16.60;52.70;;;;;;5019312;28;20225;-78
2021/10/29 11:46:11;;;;;;;;;;;16.70;51.50;;;;;;5033424;28;20512;-77
2021/10/29 11:49:08;;;;;;;32.88;13.90;;;16.70;53.00;;;;;;5014518;28;19924;-78
2021/10/29 11:51:35;;;;;;;24.33;13.55;;;16.70;53.30;;;;;;5036234;28;20037;-79
2021/10/29 11:54:17;;;;;;;22.73;13.10;;;16.70;53.20;;;;;;5035041;28;20105;-77
2021/10/29 12:09:50;;;;;;;29.10;12.88;;;16.70;52.00;;;;;;5032108;28;20034;-76
2021/10/29 12:12:21;;;;;;;25.38;14.38;;;16.80;52.50;;;;;;5032245;28;20018;-77
2021/10/29 12:14:50;;;;;;;25.08;14.18;;;16.80;52.10;;;;;;5013369;28;20059;-77
2021/10/29 12:17:25;;;;;;;26.35;13.07;;;16.80;51.50;;;;;;4997053;28;20048;-77
2021/10/29 12:19:56;;;;;;;26.83;13.98;;;16.90;50.80;;;;;;5013320;28;20029;-78
2021/10/29 12:22:33;;;;;;;30.17;18.15;;;16.80;50.50;;;;;;5013966;28;20029;-78
2021/10/29 12:25:17;;;;;;;29.23;16.00;;;16.80;51.10;;;;;;5032080;28;20045;-78
2021/10/29 13:01:34;;;;;;;38.05;17.20;;;17.20;48.80;;;;;;5032542;28;19936;-77
2021/10/29 13:04:11;;;;;;;29.88;13.10;;;17.20;49.10;;;;;;5035430;28;20061;-77
2021/10/29 13:06:38;;;;;;;21.88;12.98;;;17.10;49.30;;;;;;5027441;28;20116;-75
2021/10/29 13:09:22;;;;;;;26.23;12.98;;;17.20;48.70;;;;;;5028501;28;20036;-76
2021/10/29 13:11:54;;;;;;;24.15;14.20;;;17.20;48.80;;;;;;5034213;28;20029;-78
2021/10/29 13:14:39;;;;;;;30.95;14.68;;;17.20;48.70;;;;;;5033250;28;20029;-78
2021/10/29 13:17:09;;;;;;;31.17;14.23;;;17.20;48.60;;;;;;5014156;28;20037;-78
2021/10/29 14:24:29;;;;;;;40.90;26.73;;;15.90;50.90;;;;;;5053767;28;20159;-77
2021/10/29 14:29:47;;;;;;;35.25;19.05;;;15.80;50.70;;;;;;5050574;28;20083;-76
2021/10/29 14:32:18;;;;;;;31.58;19.38;;;15.70;51.00;;;;;;5056359;28;20032;-77
2021/10/29 14:34:56;;;;;;;25.92;14.88;;;15.60;51.30;;;;;;5035017;28;20021;-77
2021/10/29 14:40:06;;;;;;;153.70;80.15;;;15.50;51.40;;;;;;5060036;28;20029;-77
2021/10/29 14:42:50;;;;;;;168.27;93.72;;;15.40;51.50;;;;;;5036498;28;20040;-77
2021/10/29 14:45:26;;;;;;;166.35;94.70;;;15.30;51.70;;;;;;5036129;28;20029;-77
2021/10/29 14:48:13;;;;;;;156.70;91.00;;;15.30;51.90;;;;;;5055190;28;20021;-76
2021/10/29 15:04:22;;;;;;;29.05;12.13;;;14.70;53.90;;;;;;5054852;28;20018;-76
2021/10/29 15:15:32;;;;;;;30.40;14.40;;;14.20;55.20;;;;;;5053275;28;20032;-78
2021/10/29 15:18:03;;;;;;;35.42;14.23;;;14.20;55.50;;;;;;5052960;28;20115;-77
2021/10/29 15:29:04;;;;;;;30.98;14.88;;;13.70;57.40;;;;;;5052505;28;20119;-76
2021/10/29 15:45:04;;;;;;;35.40;17.52;;;12.80;60.00;;;;;;5053217;28;20051;-77
2021/10/29 15:47:43;;;;;;;31.38;15.82;;;12.70;60.20;;;;;;5036111;28;20020;-77
2021/10/29 15:50:11;;;;;;;37.50;16.35;;;12.60;60.40;;;;;;5051828;28;20039;-77
2021/10/29 15:52:37;;;;;;;50.78;27.75;;;12.50;61.30;;;;;;5037218;28;20040;-76
2021/10/29 15:55:08;;;;;;;56.97;30.90;;;12.30;61.70;;;;;;5055514;28;20048;-77
2021/10/29 15:57:45;;;;;;;77.35;32.10;;;12.20;62.20;;;;;;5039238;28;20025;-78
2021/10/29 16:03:17;;;;;;;44.33;23.73;;;11.90;63.20;;;;;;5018274;28;20040;-76
2021/10/29 16:19:29;;;;;;;49.05;25.33;;;11.40;65.20;;;;;;5054792;28;20143;-76
2021/10/29 16:21:55;;;;;;;44.55;24.58;;;11.30;67.10;;;;;;5055639;28;20021;-75
2021/10/29 16:24:20;;;;;;;;;;;11.20;66.50;;;;;;5053695;28;20036;-76
2021/10/29 16:26:48;;;;;;;36.05;19.20;;;11.30;66.90;;;;;;5056198;28;19999;-77
2021/10/29 16:29:19;;;;;;;32.20;16.92;;;11.30;67.10;;;;;;5040750;28;20025;-77
2021/10/29 16:31:46;;;;;;;35.60;17.95;;;11.60;66.80;;;;;;5058542;28;20056;-77
2021/10/29 16:34:13;;;;;;;29.55;15.25;;;11.70;66.30;;;;;;5062513;28;20036;-78
2021/10/29 16:36:39;;;;;;;28.00;16.25;;;11.70;66.20;;;;;;5014743;28;20132;-78
2021/10/29 16:39:05;;;;;;;28.20;14.93;;;11.70;66.10;;;;;;5041365;28;20028;-77
2021/10/29 16:41:32;;;;;;;;;;;11.60;66.20;;;;;;5040360;28;20028;-78
2021/10/29 16:43:58;;;;;;;32.00;16.38;;;11.50;67.00;;;;;;5062068;28;19954;-78
2021/10/29 16:46:24;;;;;;;;;;;11.50;67.30;;;;;;5040155;28;20122;-79
2021/10/29 16:48:51;;;;;;;30.50;16.38;;;11.60;67.70;;;;;;5062729;28;19927;-77
2021/10/29 16:51:17;;;;;;;33.67;16.65;;;11.80;67.00;;;;;;5057052;28;20112;-77
2021/10/29 16:53:44;;;;;;;;;;;11.90;66.60;;;;;;5039966;28;20082;-78
2021/10/29 16:56:12;;;;;;;34.80;17.50;;;12.10;66.00;;;;;;5048631;28;19919;-78
2021/10/29 16:58:41;;;;;;;32.88;16.70;;;12.40;65.20;;;;;;5045227;28;20021;-77
2021/10/29 17:01:09;;;;;;;48.70;28.65;;;12.50;65.00;;;;;;5037514;28;20044;-78
2021/10/29 17:03:37;;;;;;;36.30;18.83;;;12.50;64.90;;;;;;5041878;28;20024;-77
2021/10/29 17:06:03;;;;;;;30.73;18.10;;;12.50;64.70;;;;;;5052178;28;20056;-77
2021/10/29 17:08:29;;;;;;;;;;;12.40;65.00;;;;;;5035663;28;20025;-77
2021/10/29 17:10:56;;;;;;;288.77;158.23;;;12.30;65.00;;;;;;5052688;28;19936;-77
2021/10/29 17:13:21;;;;;;;45.22;23.92;;;12.20;65.40;;;;;;5054863;28;20032;-77
2021/10/29 17:15:47;;;;;;;;;;;12.10;65.80;;;;;;5052328;28;20024;-77
2021/10/29 17:18:14;;;;;;;181.43;119.35;;;12.00;66.00;;;;;;5052472;28;19928;-77
2021/10/29 17:20:40;;;;;;;107.18;68.03;;;12.00;66.50;;;;;;5037589;28;20039;-77
2021/10/29 17:23:05;;;;;;;;;;;11.80;66.70;;;;;;5036082;28;20114;-76
2021/10/29 17:25:31;;;;;;;49.17;31.55;;;11.80;67.40;;;;;;5054672;28;20401;-75
2021/10/29 17:28:03;;;;;;;41.45;22.13;;;11.70;67.60;;;;;;5052049;28;20025;-75
2021/10/29 17:30:29;;;;;;;36.38;22.30;;;11.60;68.20;;;;;;5037248;28;20029;-76
2021/10/29 17:33:01;;;;;;;;;;;11.50;68.80;;;;;;5054304;28;20451;-75
2021/10/29 17:35:26;;;;;;;72.13;35.00;;;11.30;69.40;;;;;;5059586;28;19980;-78
2021/10/29 17:37:54;;;;;;;50.60;28.30;;;11.40;69.90;;;;;;5067436;28;20037;-77
2021/10/29 17:40:20;;;;;;;41.65;22.33;;;11.20;69.80;;;;;;5061864;28;20036;-77
2021/10/29 17:42:46;;;;;;;47.47;25.77;;;11.20;70.20;;;;;;5061013;28;20032;-76
2021/10/29 17:45:16;;;;;;;;;;;11.20;70.30;;;;;;5043528;28;20024;-78
2021/10/29 17:47:42;;;;;;;58.20;29.58;;;11.10;70.70;;;;;;5060132;28;19909;-77
2021/10/29 17:50:08;;;;;;;;;;;11.10;71.00;;;;;;5062015;28;20108;-76